Temp: 3.9°C   Baro: 1036.4mb
  Wind: 2.9mph   Dir: W (273°)
  Rain: 0.0mm (0.0mm/hr)
  Solar: 0W/m2  Hum: 84%

Historic data

Bath Spa Weather Station Historical Data
Daily Summary for December 1, 2019 Units:  Both    English   Metric
Daily Weekly Monthly Yearly Custom
  High: Low: Average:
Temperature: 44.1 °F /  6.7 °C 33.2 °F /  0.7 °C 39.5 °F /  4.2 °C
Dew Point: 39 °F /  3.9 °C 30 °F /  -1.1 °C 36 °F /  2.2 °C
Humidity: 92% 82% 87%
Wind Speed: 10.2mph /  16.4km/h - 2.8mph /  4.5km/h
Wind Gust: 28mph /  45.1km/h - -
Wind- - South
Pressure: 30.43 in /  1030.4 hPa 30.12 in /  1019.9 hPa -
Precipitation: 0.00 in /  0 mm    
Historical Graphs
 
 
Tabular Data for December 1, 2019
Time Temperature Dew Point Pressure Wind Wind Speed Wind Gust Humidity Rainfall Rate (Hourly) solar
00:09 37.6 °F /  3.1 °C 35.2 °F /  1.8 °C 30.14in /  1020.5hPa NE 3.3mph /  5.3km/h 10mph /  16.1km/h 91% 0.00in /  0mm 0 W/m2
00:14 37.6 °F /  3.1 °C 35.4 °F /  1.9 °C 30.14in /  1020.5hPa ENE 2.7mph /  4.3km/h 9mph /  14.5km/h 92% 0.00in /  0mm 0 W/m2
00:19 37.6 °F /  3.1 °C 35.4 °F /  1.9 °C 30.14in /  1020.5hPa NE 2.9mph /  4.7km/h 10mph /  16.1km/h 92% 0.00in /  0mm 0 W/m2
00:24 37.6 °F /  3.1 °C 35.4 °F /  1.9 °C 30.14in /  1020.5hPa ENE 4.1mph /  6.6km/h 10mph /  16.1km/h 92% 0.00in /  0mm 0 W/m2
00:29 37.4 °F /  3 °C 35.2 °F /  1.8 °C 30.14in /  1020.5hPa NE 1.6mph /  2.6km/h 6mph /  9.7km/h 92% 0.00in /  0mm 0 W/m2
00:34 37.4 °F /  3 °C 35.2 °F /  1.8 °C 30.14in /  1020.5hPa NE 4.6mph /  7.4km/h 11mph /  17.7km/h 92% 0.00in /  0mm 0 W/m2
00:39 37.4 °F /  3 °C 35.2 °F /  1.8 °C 30.14in /  1020.5hPa NE 2.7mph /  4.3km/h 11mph /  17.7km/h 92% 0.00in /  0mm 0 W/m2
00:44 37.4 °F /  3 °C 35.2 °F /  1.8 °C 30.14in /  1020.5hPa ENE 5mph /  8km/h 13mph /  20.9km/h 92% 0.00in /  0mm 0 W/m2
00:49 37.4 °F /  3 °C 35.2 °F /  1.8 °C 30.14in /  1020.5hPa ENE 4.7mph /  7.6km/h 11mph /  17.7km/h 92% 0.00in /  0mm 0 W/m2
00:54 37.4 °F /  3 °C 35.2 °F /  1.8 °C 30.14in /  1020.5hPa NE 3.9mph /  6.3km/h 10mph /  16.1km/h 92% 0.00in /  0mm 0 W/m2
00:59 37.2 °F /  2.9 °C 35.1 °F /  1.7 °C 30.14in /  1020.5hPa ENE 2mph /  3.2km/h 8mph /  12.9km/h 92% 0.00in /  0mm 0 W/m2
01:04 37.2 °F /  2.9 °C 35.1 °F /  1.7 °C 30.14in /  1020.5hPa NE 4.8mph /  7.7km/h 10mph /  16.1km/h 92% 0.00in /  0mm 0 W/m2
01:09 37.2 °F /  2.9 °C 35.1 °F /  1.7 °C 30.13in /  1020.2hPa NE 4.8mph /  7.7km/h 11mph /  17.7km/h 92% 0.00in /  0mm 0 W/m2
01:14 37.2 °F /  2.9 °C 35.1 °F /  1.7 °C 30.13in /  1020.2hPa NNE 5.6mph /  9km/h 10mph /  16.1km/h 92% 0.00in /  0mm 0 W/m2
01:19 37.2 °F /  2.9 °C 35.1 °F /  1.7 °C 30.13in /  1020.2hPa East 1.7mph /  2.7km/h 9mph /  14.5km/h 92% 0.00in /  0mm 0 W/m2
01:24 37.2 °F /  2.9 °C 35.1 °F /  1.7 °C 30.13in /  1020.2hPa NNE 4.4mph /  7.1km/h 9mph /  14.5km/h 92% 0.00in /  0mm 0 W/m2
01:29 37 °F /  2.8 °C 34.9 °F /  1.6 °C 30.13in /  1020.2hPa NE 1.6mph /  2.6km/h 9mph /  14.5km/h 92% 0.00in /  0mm 0 W/m2
01:34 37 °F /  2.8 °C 34.9 °F /  1.6 °C 30.13in /  1020.2hPa NE 4mph /  6.4km/h 10mph /  16.1km/h 92% 0.00in /  0mm 0 W/m2
01:39 37.1 °F /  2.8 °C 35 °F /  1.7 °C 30.13in /  1020.2hPa NE 4.9mph /  7.9km/h 14mph /  22.5km/h 92% 0.00in /  0mm 0 W/m2
01:44 37.2 °F /  2.9 °C 35.1 °F /  1.7 °C 30.13in /  1020.2hPa ENE 4.8mph /  7.7km/h 10mph /  16.1km/h 92% 0.00in /  0mm 0 W/m2
01:49 37.2 °F /  2.9 °C 35.1 °F /  1.7 °C 30.13in /  1020.2hPa ENE 7.2mph /  11.6km/h 14mph /  22.5km/h 92% 0.00in /  0mm 0 W/m2
01:54 37.2 °F /  2.9 °C 35.1 °F /  1.7 °C 30.13in /  1020.2hPa ENE 5.5mph /  8.9km/h 11mph /  17.7km/h 92% 0.00in /  0mm 0 W/m2
01:59 37.2 °F /  2.9 °C 35.1 °F /  1.7 °C 30.13in /  1020.2hPa ENE 3.7mph /  6km/h 11mph /  17.7km/h 92% 0.00in /  0mm 0 W/m2
02:04 37.1 °F /  2.8 °C 35 °F /  1.7 °C 30.13in /  1020.2hPa NE 3.3mph /  5.3km/h 11mph /  17.7km/h 92% 0.00in /  0mm 0 W/m2
02:09 37 °F /  2.8 °C 34.9 °F /  1.6 °C 30.13in /  1020.2hPa NE 2.9mph /  4.7km/h 8mph /  12.9km/h 92% 0.00in /  0mm 0 W/m2
02:14 37 °F /  2.8 °C 34.9 °F /  1.6 °C 30.13in /  1020.2hPa NE 4.1mph /  6.6km/h 8mph /  12.9km/h 92% 0.00in /  0mm 0 W/m2
02:19 37 °F /  2.8 °C 34.9 °F /  1.6 °C 30.13in /  1020.2hPa ENE 5mph /  8km/h 9mph /  14.5km/h 92% 0.00in /  0mm 0 W/m2
02:24 37 °F /  2.8 °C 34.9 °F /  1.6 °C 30.13in /  1020.2hPa NE 2.7mph /  4.3km/h 11mph /  17.7km/h 92% 0.00in /  0mm 0 W/m2
02:29 37.1 °F /  2.8 °C 35 °F /  1.7 °C 30.13in /  1020.2hPa NE 3mph /  4.8km/h 11mph /  17.7km/h 92% 0.00in /  0mm 0 W/m2
02:34 37.2 °F /  2.9 °C 35.1 °F /  1.7 °C 30.13in /  1020.2hPa NE 3.7mph /  6km/h 10mph /  16.1km/h 92% 0.00in /  0mm 0 W/m2
02:39 37.2 °F /  2.9 °C 35.1 °F /  1.7 °C 30.13in /  1020.2hPa NE 4.4mph /  7.1km/h 12mph /  19.3km/h 92% 0.00in /  0mm 0 W/m2
02:44 37.3 °F /  2.9 °C 35.2 °F /  1.8 °C 30.13in /  1020.2hPa NE 5.6mph /  9km/h 17mph /  27.4km/h 92% 0.00in /  0mm 0 W/m2
02:49 37.4 °F /  3 °C 35.2 °F /  1.8 °C 30.13in /  1020.2hPa NE 3.5mph /  5.6km/h 11mph /  17.7km/h 92% 0.00in /  0mm 0 W/m2
02:54 37.4 °F /  3 °C 35.2 °F /  1.8 °C 30.13in /  1020.2hPa NE 2.5mph /  4km/h 11mph /  17.7km/h 92% 0.00in /  0mm 0 W/m2
02:59 37.4 °F /  3 °C 35.2 °F /  1.8 °C 30.12in /  1019.9hPa ENE 2.1mph /  3.4km/h 7mph /  11.3km/h 92% 0.00in /  0mm 0 W/m2
03:04 37.3 °F /  2.9 °C 35.1 °F /  1.7 °C 30.12in /  1019.9hPa ENE 1.7mph /  2.7km/h 7mph /  11.3km/h 92% 0.00in /  0mm 0 W/m2
03:09 37.2 °F /  2.9 °C 35.1 °F /  1.7 °C 30.12in /  1019.9hPa ENE 1.5mph /  2.4km/h 6mph /  9.7km/h 92% 0.00in /  0mm 0 W/m2
03:14 37.2 °F /  2.9 °C 35.1 °F /  1.7 °C 30.12in /  1019.9hPa NE 3.2mph /  5.1km/h 7mph /  11.3km/h 92% 0.00in /  0mm 0 W/m2
03:19 37.2 °F /  2.9 °C 35.1 °F /  1.7 °C 30.12in /  1019.9hPa East 4.6mph /  7.4km/h 10mph /  16.1km/h 92% 0.00in /  0mm 0 W/m2
03:24 37.2 °F /  2.9 °C 35.1 °F /  1.7 °C 30.12in /  1019.9hPa ENE 4mph /  6.4km/h 9mph /  14.5km/h 92% 0.00in /  0mm 0 W/m2
03:29 37.1 °F /  2.8 °C 35 °F /  1.7 °C 30.12in /  1019.9hPa ESE 3.1mph /  5km/h 9mph /  14.5km/h 92% 0.00in /  0mm 0 W/m2
03:34 37 °F /  2.8 °C 34.9 °F /  1.6 °C 30.12in /  1019.9hPa ENE 3.1mph /  5km/h 9mph /  14.5km/h 92% 0.00in /  0mm 0 W/m2
03:39 37 °F /  2.8 °C 34.9 °F /  1.6 °C 30.12in /  1019.9hPa NE 3mph /  4.8km/h 8mph /  12.9km/h 92% 0.00in /  0mm 0 W/m2
03:44 37 °F /  2.8 °C 34.9 °F /  1.6 °C 30.12in /  1019.9hPa ENE 2.7mph /  4.3km/h 8mph /  12.9km/h 92% 0.00in /  0mm 0 W/m2
03:49 37 °F /  2.8 °C 34.9 °F /  1.6 °C 30.12in /  1019.9hPa NE 2.7mph /  4.3km/h 7mph /  11.3km/h 92% 0.00in /  0mm 0 W/m2
03:54 37 °F /  2.8 °C 34.9 °F /  1.6 °C 30.12in /  1019.9hPa NE 4.4mph /  7.1km/h 10mph /  16.1km/h 92% 0.00in /  0mm 0 W/m2
03:59 37.2 °F /  2.9 °C 35.1 °F /  1.7 °C 30.13in /  1020.2hPa NE 3.1mph /  5km/h 9mph /  14.5km/h 92% 0.00in /  0mm 0 W/m2
04:04 37.2 °F /  2.9 °C 35.1 °F /  1.7 °C 30.13in /  1020.2hPa NE 2.7mph /  4.3km/h 9mph /  14.5km/h 92% 0.00in /  0mm 0 W/m2
04:09 37.2 °F /  2.9 °C 35.1 °F /  1.7 °C 30.13in /  1020.2hPa ENE 4mph /  6.4km/h 10mph /  16.1km/h 92% 0.00in /  0mm 0 W/m2
04:14 37.2 °F /  2.9 °C 35.1 °F /  1.7 °C 30.12in /  1019.9hPa NE 4.2mph /  6.8km/h 10mph /  16.1km/h 92% 0.00in /  0mm 0 W/m2
04:19 37.2 °F /  2.9 °C 35.1 °F /  1.7 °C 30.13in /  1020.2hPa ENE 2.9mph /  4.7km/h 10mph /  16.1km/h 92% 0.00in /  0mm 0 W/m2
04:24 37.2 °F /  2.9 °C 35.1 °F /  1.7 °C 30.13in /  1020.2hPa NE 3.2mph /  5.1km/h 10mph /  16.1km/h 92% 0.00in /  0mm 0 W/m2
04:29 37.1 °F /  2.8 °C 35 °F /  1.7 °C 30.13in /  1020.2hPa ENE 1.5mph /  2.4km/h 7mph /  11.3km/h 92% 0.00in /  0mm 0 W/m2
04:34 37.1 °F /  2.8 °C 35 °F /  1.7 °C 30.13in /  1020.2hPa NE 1.8mph /  2.9km/h 6mph /  9.7km/h 92% 0.00in /  0mm 0 W/m2
04:39 37 °F /  2.8 °C 34.9 °F /  1.6 °C 30.13in /  1020.2hPa East 1.6mph /  2.6km/h 4mph /  6.4km/h 92% 0.00in /  0mm 0 W/m2
04:44 37 °F /  2.8 °C 34.9 °F /  1.6 °C 30.13in /  1020.2hPa East 1mph /  1.6km/h 5mph /  8km/h 92% 0.00in /  0mm 0 W/m2
04:49 37 °F /  2.8 °C 34.9 °F /  1.6 °C 30.13in /  1020.2hPa NE 2.8mph /  4.5km/h 9mph /  14.5km/h 92% 0.00in /  0mm 0 W/m2
04:54 36.9 °F /  2.7 °C 34.8 °F /  1.6 °C 30.14in /  1020.5hPa NE 0.2mph /  0.3km/h 5mph /  8km/h 92% 0.00in /  0mm 0 W/m2
04:59 36.8 °F /  2.7 °C 34.6 °F /  1.4 °C 30.14in /  1020.5hPa NNE 2.8mph /  4.5km/h 7mph /  11.3km/h 92% 0.00in /  0mm 0 W/m2
05:04 36.9 °F /  2.7 °C 34.7 °F /  1.5 °C 30.14in /  1020.5hPa NNE 1mph /  1.6km/h 4mph /  6.4km/h 92% 0.00in /  0mm 0 W/m2
05:09 37 °F /  2.8 °C 34.9 °F /  1.6 °C 30.14in /  1020.5hPa ENE 3.6mph /  5.8km/h 9mph /  14.5km/h 92% 0.00in /  0mm 0 W/m2
05:14 37 °F /  2.8 °C 34.9 °F /  1.6 °C 30.14in /  1020.5hPa NE 1.2mph /  1.9km/h 11mph /  17.7km/h 92% 0.00in /  0mm 0 W/m2
05:19 37 °F /  2.8 °C 34.9 °F /  1.6 °C 30.15in /  1020.9hPa NE 0.8mph /  1.3km/h 5mph /  8km/h 92% 0.00in /  0mm 0 W/m2
05:24 37 °F /  2.8 °C 34.9 °F /  1.6 °C 30.15in /  1020.9hPa NE 1.4mph /  2.3km/h 6mph /  9.7km/h 91.8% 0.00in /  0mm 0 W/m2
05:29 37.1 °F /  2.8 °C 34.9 °F /  1.6 °C 30.15in /  1020.9hPa NE 2mph /  3.2km/h 8mph /  12.9km/h 91.8% 0.00in /  0mm 0 W/m2
05:33 37.2 °F /  2.9 °C 35.1 °F /  1.7 °C 30.15in /  1020.9hPa NNE 0.7mph /  1.1km/h 6mph /  9.7km/h 92% 0.00in /  0mm 0 W/m2
05:39 37.4 °F /  3 °C 35.2 °F /  1.8 °C 30.15in /  1020.9hPa ENE 2.4mph /  3.9km/h 10mph /  16.1km/h 92% 0.00in /  0mm 0 W/m2
05:44 37.7 °F /  3.2 °C 35.5 °F /  1.9 °C 30.16in /  1021.2hPa NE 2.5mph /  4km/h 10mph /  16.1km/h 92% 0.00in /  0mm 0 W/m2
05:49 37.8 °F /  3.2 °C 35.6 °F /  2 °C 30.16in /  1021.2hPa NE 5.2mph /  8.4km/h 11mph /  17.7km/h 92% 0.00in /  0mm 0 W/m2
05:54 37.9 °F /  3.3 °C 35.6 °F /  2 °C 30.16in /  1021.2hPa North 4.8mph /  7.7km/h 14mph /  22.5km/h 91.2% 0.00in /  0mm 0 W/m2
05:59 38.1 °F /  3.4 °C 35.9 °F /  2.2 °C 30.16in /  1021.2hPa NE 5.8mph /  9.3km/h 15mph /  24.1km/h 91.8% 0.00in /  0mm 0 W/m2
06:04 38.2 °F /  3.4 °C 35.9 °F /  2.2 °C 30.16in /  1021.2hPa NNE 10.2mph /  16.4km/h 28mph /  45.1km/h 91% 0.00in /  0mm 0 W/m2
06:09 38.4 °F /  3.6 °C 36.1 °F /  2.3 °C 30.16in /  1021.2hPa NNE 1mph /  1.6km/h 7mph /  11.3km/h 91% 0.00in /  0mm 0 W/m2
06:14 38.5 °F /  3.6 °C 36.1 °F /  2.3 °C 30.16in /  1021.2hPa NE 2.5mph /  4km/h 8mph /  12.9km/h 91% 0.00in /  0mm 0 W/m2
06:19 38.7 °F /  3.7 °C 36.3 °F /  2.4 °C 30.16in /  1021.2hPa NE 5.4mph /  8.7km/h 11mph /  17.7km/h 91% 0.00in /  0mm 0 W/m2
06:24 38.8 °F /  3.8 °C 36.5 °F /  2.5 °C 30.16in /  1021.2hPa ENE 1.6mph /  2.6km/h 7mph /  11.3km/h 91% 0.00in /  0mm 0 W/m2
06:29 38.8 °F /  3.8 °C 36.5 °F /  2.5 °C 30.16in /  1021.2hPa ENE 1.2mph /  1.9km/h 7mph /  11.3km/h 91% 0.00in /  0mm 0 W/m2
06:34 38.8 °F /  3.8 °C 36.5 °F /  2.5 °C 30.17in /  1021.6hPa North 1.8mph /  2.9km/h 8mph /  12.9km/h 91% 0.00in /  0mm 0 W/m2
06:39 38.9 °F /  3.8 °C 36.6 °F /  2.6 °C 30.17in /  1021.6hPa ENE 1.7mph /  2.7km/h 10mph /  16.1km/h 91% 0.00in /  0mm 0 W/m2
06:44 39 °F /  3.9 °C 36.7 °F /  2.6 °C 30.17in /  1021.6hPa NNE 0.8mph /  1.3km/h 5mph /  8km/h 91% 0.00in /  0mm 0 W/m2
06:49 39 °F /  3.9 °C 36.6 °F /  2.6 °C 30.17in /  1021.6hPa NE 1.4mph /  2.3km/h 5mph /  8km/h 90.8% 0.00in /  0mm 0 W/m2
06:54 39 °F /  3.9 °C 36.3 °F /  2.4 °C 30.17in /  1021.6hPa NNE 1.2mph /  1.9km/h 5mph /  8km/h 90% 0.00in /  0mm 0 W/m2
06:59 39.2 °F /  4 °C 36.5 °F /  2.5 °C 30.17in /  1021.6hPa NE 2.4mph /  3.9km/h 5mph /  8km/h 90% 0.00in /  0mm 0 W/m2
07:04 39.2 °F /  4 °C 36.5 °F /  2.5 °C 30.17in /  1021.6hPa NE 0.6mph /  1km/h 5mph /  8km/h 90% 0.00in /  0mm 0 W/m2
07:09 39.2 °F /  4 °C 36.5 °F /  2.5 °C 30.18in /  1021.9hPa NNE 0.4mph /  0.6km/h 4mph /  6.4km/h 90% 0.00in /  0mm 0 W/m2
07:14 39.4 °F /  4.1 °C 36.7 °F /  2.6 °C 30.18in /  1021.9hPa NNE 3mph /  4.8km/h 9mph /  14.5km/h 90% 0.00in /  0mm 0 W/m2
07:19 39.6 °F /  4.2 °C 36.9 °F /  2.7 °C 30.18in /  1021.9hPa NNE 0.9mph /  1.4km/h 4mph /  6.4km/h 90% 0.00in /  0mm 0 W/m2
07:24 39.6 °F /  4.2 °C 36.9 °F /  2.7 °C 30.18in /  1021.9hPa NE 4.7mph /  7.6km/h 9mph /  14.5km/h 90% 0.00in /  0mm 0 W/m2
07:29 39.7 °F /  4.3 °C 37 °F /  2.8 °C 30.18in /  1021.9hPa NE 2.5mph /  4km/h 9mph /  14.5km/h 90% 0.00in /  0mm 0 W/m2
07:34 39.7 °F /  4.3 °C 37 °F /  2.8 °C 30.18in /  1021.9hPa ENE 3.4mph /  5.5km/h 10mph /  16.1km/h 90% 0.00in /  0mm 0 W/m2
07:39 39.8 °F /  4.3 °C 37.1 °F /  2.8 °C 30.19in /  1022.2hPa NE 1.7mph /  2.7km/h 8mph /  12.9km/h 90% 0.00in /  0mm 0 W/m2
07:44 39.9 °F /  4.4 °C 37.2 °F /  2.9 °C 30.19in /  1022.2hPa NE 1.4mph /  2.3km/h 9mph /  14.5km/h 90% 0.00in /  0mm 0 W/m2
07:49 39.9 °F /  4.4 °C 37.1 °F /  2.8 °C 30.20in /  1022.6hPa North 4mph /  6.4km/h 7mph /  11.3km/h 89.8% 0.00in /  0mm 0 W/m2
07:54 39.9 °F /  4.4 °C 36.9 °F /  2.7 °C 30.20in /  1022.6hPa NNE 5mph /  8km/h 9mph /  14.5km/h 89% 0.00in /  0mm 0 W/m2
07:59 40.1 °F /  4.5 °C 37 °F /  2.8 °C 30.20in /  1022.6hPa NNE 2.4mph /  3.9km/h 10mph /  16.1km/h 89% 0.00in /  0mm 0 W/m2
08:04 40.1 °F /  4.5 °C 37 °F /  2.8 °C 30.20in /  1022.6hPa NNW 2mph /  3.2km/h 5mph /  8km/h 89% 0.00in /  0mm 0 W/m2
08:09 40.1 °F /  4.5 °C 37 °F /  2.8 °C 30.20in /  1022.6hPa NE 6.2mph /  10km/h 13mph /  20.9km/h 89% 0.00in /  0mm 0 W/m2
08:14 40.2 °F /  4.6 °C 37.1 °F /  2.8 °C 30.21in /  1022.9hPa NE 4.2mph /  6.8km/h 10mph /  16.1km/h 89% 0.00in /  0mm 5 W/m2
08:19 40.3 °F /  4.6 °C 37.1 °F /  2.8 °C 30.21in /  1022.9hPa NE 3.6mph /  5.8km/h 9mph /  14.5km/h 88.4% 0.00in /  0mm 5 W/m2
08:24 40.3 °F /  4.6 °C 37 °F /  2.8 °C 30.21in /  1022.9hPa NNE 4.2mph /  6.8km/h 12mph /  19.3km/h 88% 0.00in /  0mm 5 W/m2
08:29 40.3 °F /  4.6 °C 37 °F /  2.8 °C 30.22in /  1023.2hPa North 2.9mph /  4.7km/h 12mph /  19.3km/h 88% 0.00in /  0mm 5 W/m2
08:34 40.3 °F /  4.6 °C 37 °F /  2.8 °C 30.22in /  1023.2hPa North 4.2mph /  6.8km/h 9mph /  14.5km/h 88% 0.00in /  0mm 9 W/m2
08:39 40.5 °F /  4.7 °C 37.2 °F /  2.9 °C 30.22in /  1023.2hPa NNE 3.6mph /  5.8km/h 11mph /  17.7km/h 88% 0.00in /  0mm 11 W/m2
08:44 40.5 °F /  4.7 °C 37 °F /  2.8 °C 30.22in /  1023.2hPa NNE 3.7mph /  6km/h 11mph /  17.7km/h 87.3% 0.00in /  0mm 14 W/m2
08:49 40.6 °F /  4.8 °C 37 °F /  2.8 °C 30.22in /  1023.2hPa North 3.4mph /  5.5km/h 6mph /  9.7km/h 87% 0.00in /  0mm 21 W/m2
08:54 40.6 °F /  4.8 °C 37 °F /  2.8 °C 30.22in /  1023.2hPa North 2.4mph /  3.9km/h 7mph /  11.3km/h 87% 0.00in /  0mm 26 W/m2
08:59 40.6 °F /  4.8 °C 37 °F /  2.8 °C 30.22in /  1023.2hPa NE 1.6mph /  2.6km/h 8mph /  12.9km/h 87% 0.00in /  0mm 25 W/m2
09:04 40.6 °F /  4.8 °C 37 °F /  2.8 °C 30.23in /  1023.6hPa NE 0.4mph /  0.6km/h 5mph /  8km/h 87% 0.00in /  0mm 26 W/m2
09:09 40.6 °F /  4.8 °C 37 °F /  2.8 °C 30.23in /  1023.6hPa NE 1mph /  1.6km/h 7mph /  11.3km/h 87% 0.00in /  0mm 32 W/m2
09:14 40.7 °F /  4.8 °C 37 °F /  2.8 °C 30.23in /  1023.6hPa NE 0.6mph /  1km/h 2mph /  3.2km/h 86% 0.00in /  0mm 39 W/m2
09:19 40.8 °F /  4.9 °C 37 °F /  2.8 °C 30.23in /  1023.6hPa NE 1.3mph /  2.1km/h 4mph /  6.4km/h 86% 0.00in /  0mm 40 W/m2
09:24 40.9 °F /  4.9 °C 37.1 °F /  2.8 °C 30.23in /  1023.6hPa NE 0.6mph /  1km/h 4mph /  6.4km/h 86% 0.00in /  0mm 42 W/m2
09:29 41 °F /  5 °C 37.2 °F /  2.9 °C 30.23in /  1023.6hPa ESE 2mph /  3.2km/h 7mph /  11.3km/h 86% 0.00in /  0mm 46 W/m2
09:34 41.2 °F /  5.1 °C 37.4 °F /  3 °C 30.23in /  1023.6hPa NE 1.2mph /  1.9km/h 7mph /  11.3km/h 86% 0.00in /  0mm 54 W/m2
09:39 41.2 °F /  5.1 °C 37.4 °F /  3 °C 30.23in /  1023.6hPa NNE 1.2mph /  1.9km/h 5mph /  8km/h 86% 0.00in /  0mm 70 W/m2
09:44 41.3 °F /  5.2 °C 37.5 °F /  3.1 °C 30.24in /  1023.9hPa NE 2.8mph /  4.5km/h 6mph /  9.7km/h 86% 0.00in /  0mm 72 W/m2
09:49 41.4 °F /  5.2 °C 37.4 °F /  3 °C 30.24in /  1023.9hPa NNE 0.7mph /  1.1km/h 6mph /  9.7km/h 85.6% 0.00in /  0mm 67 W/m2
09:54 41.4 °F /  5.2 °C 37.4 °F /  3 °C 30.24in /  1023.9hPa North 1.4mph /  2.3km/h 5mph /  8km/h 85.2% 0.00in /  0mm 65 W/m2
09:59 41.5 °F /  5.3 °C 37.4 °F /  3 °C 30.24in /  1023.9hPa NNE 2.2mph /  3.5km/h 7mph /  11.3km/h 85% 0.00in /  0mm 72 W/m2
10:04 41.7 °F /  5.4 °C 37.6 °F /  3.1 °C 30.25in /  1024.3hPa North 4.8mph /  7.7km/h 12mph /  19.3km/h 85% 0.00in /  0mm 76 W/m2
10:09 41.7 °F /  5.4 °C 37.6 °F /  3.1 °C 30.25in /  1024.3hPa NNW 2mph /  3.2km/h 5mph /  8km/h 85% 0.00in /  0mm 77 W/m2
10:14 41.9 °F /  5.5 °C 37.5 °F /  3.1 °C 30.25in /  1024.3hPa NNE 4mph /  6.4km/h 9mph /  14.5km/h 84.4% 0.00in /  0mm 86 W/m2
10:19 42 °F /  5.6 °C 37.5 °F /  3.1 °C 30.25in /  1024.3hPa NNE 1.4mph /  2.3km/h 5mph /  8km/h 84% 0.00in /  0mm 90 W/m2
10:24 42.2 °F /  5.7 °C 37.7 °F /  3.2 °C 30.25in /  1024.3hPa North 4.2mph /  6.8km/h 6mph /  9.7km/h 84% 0.00in /  0mm 102 W/m2
10:29 42.3 °F /  5.7 °C 37.8 °F /  3.2 °C 30.25in /  1024.3hPa NNE 5.4mph /  8.7km/h 11mph /  17.7km/h 84% 0.00in /  0mm 100 W/m2
10:34 42.3 °F /  5.7 °C 37.6 °F /  3.1 °C 30.25in /  1024.3hPa NNE 5.2mph /  8.4km/h 9mph /  14.5km/h 83.6% 0.00in /  0mm 111 W/m2
10:39 42.4 °F /  5.8 °C 37.6 °F /  3.1 °C 30.26in /  1024.6hPa NNE 1.3mph /  2.1km/h 8mph /  12.9km/h 83% 0.00in /  0mm 100 W/m2
10:44 42.4 °F /  5.8 °C 37.6 °F /  3.1 °C 30.26in /  1024.6hPa NNE 3.1mph /  5km/h 8mph /  12.9km/h 83% 0.00in /  0mm 116 W/m2
10:49 42.4 °F /  5.8 °C 37.6 °F /  3.1 °C 30.26in /  1024.6hPa North 5.5mph /  8.9km/h 11mph /  17.7km/h 83% 0.00in /  0mm 120 W/m2
10:54 42.4 °F /  5.8 °C 37.6 °F /  3.1 °C 30.26in /  1024.6hPa NNE 5.6mph /  9km/h 13mph /  20.9km/h 83% 0.00in /  0mm 105 W/m2
10:59 42.6 °F /  5.9 °C 37.8 °F /  3.2 °C 30.26in /  1024.6hPa NNE 2.4mph /  3.9km/h 7mph /  11.3km/h 83% 0.00in /  0mm 111 W/m2
11:04 42.7 °F /  5.9 °C 37.9 °F /  3.3 °C 30.26in /  1024.6hPa NE 2.1mph /  3.4km/h 8mph /  12.9km/h 83% 0.00in /  0mm 113 W/m2
11:09 42.8 °F /  6 °C 37.9 °F /  3.3 °C 30.26in /  1024.6hPa NNE 2.5mph /  4km/h 8mph /  12.9km/h 83% 0.00in /  0mm 91 W/m2
11:14 42.8 °F /  6 °C 37.9 °F /  3.3 °C 30.26in /  1024.6hPa NNE 0.2mph /  0.3km/h 8mph /  12.9km/h 83% 0.00in /  0mm 69 W/m2
11:19 42.9 °F /  6.1 °C 38 °F /  3.3 °C 30.26in /  1024.6hPa NNE 0.2mph /  0.3km/h 3mph /  4.8km/h 83% 0.00in /  0mm 100 W/m2
11:24 42.9 °F /  6.1 °C 38 °F /  3.3 °C 30.26in /  1024.6hPa North 2.8mph /  4.5km/h 6mph /  9.7km/h 83% 0.00in /  0mm 107 W/m2
11:28 42.8 °F /  6 °C 38 °F /  3.3 °C 30.26in /  1024.6hPa North 2.2mph /  3.5km/h 6mph /  9.7km/h 83% 0.00in /  0mm 111 W/m2
11:34 43.1 °F /  6.2 °C 38.2 °F /  3.4 °C 30.26in /  1024.6hPa NE 0.6mph /  1km/h 4mph /  6.4km/h 83% 0.00in /  0mm 123 W/m2
11:39 43.2 °F /  6.2 °C 38.3 °F /  3.5 °C 30.26in /  1024.6hPa North 2.8mph /  4.5km/h 7mph /  11.3km/h 83% 0.00in /  0mm 146 W/m2
11:44 43.2 °F /  6.2 °C 38.4 °F /  3.6 °C 30.26in /  1024.6hPa North 4mph /  6.4km/h 8mph /  12.9km/h 83% 0.00in /  0mm 169 W/m2
11:49 43.4 °F /  6.3 °C 38.6 °F /  3.7 °C 30.26in /  1024.6hPa North 3.1mph /  5km/h 8mph /  12.9km/h 83% 0.00in /  0mm 148 W/m2
11:54 43.4 °F /  6.3 °C 38.5 °F /  3.6 °C 30.26in /  1024.6hPa NNE 3mph /  4.8km/h 9mph /  14.5km/h 82.2% 0.00in /  0mm 93 W/m2
11:59 43.3 °F /  6.3 °C 38.3 °F /  3.5 °C 30.26in /  1024.6hPa NNE 3.3mph /  5.3km/h 9mph /  14.5km/h 82% 0.00in /  0mm 98 W/m2
12:04 43.2 °F /  6.2 °C 38.1 °F /  3.4 °C 30.26in /  1024.6hPa NNE 4.1mph /  6.6km/h 9mph /  14.5km/h 82% 0.00in /  0mm 100 W/m2
12:09 43.2 °F /  6.2 °C 38.1 °F /  3.4 °C 30.26in /  1024.6hPa NNW 3.3mph /  5.3km/h 6mph /  9.7km/h 82% 0.00in /  0mm 86 W/m2
12:14 43.2 °F /  6.2 °C 38.1 °F /  3.4 °C 30.26in /  1024.6hPa NNE 2mph /  3.2km/h 7mph /  11.3km/h 82% 0.00in /  0mm 90 W/m2
12:19 43.2 °F /  6.2 °C 38.3 °F /  3.5 °C 30.26in /  1024.6hPa NNE 2.4mph /  3.9km/h 7mph /  11.3km/h 82.8% 0.00in /  0mm 139 W/m2
12:24 43.5 °F /  6.4 °C 38.7 °F /  3.7 °C 30.26in /  1024.6hPa NNE 2mph /  3.2km/h 6mph /  9.7km/h 83% 0.00in /  0mm 128 W/m2
12:29 43.7 °F /  6.5 °C 38.7 °F /  3.7 °C 30.26in /  1024.6hPa North 3mph /  4.8km/h 6mph /  9.7km/h 82.5% 0.00in /  0mm 100 W/m2
12:34 43.9 °F /  6.6 °C 38.9 °F /  3.8 °C 30.26in /  1024.6hPa North 2.2mph /  3.5km/h 7mph /  11.3km/h 82.6% 0.00in /  0mm 111 W/m2
12:39 44.1 °F /  6.7 °C 39 °F /  3.9 °C 30.26in /  1024.6hPa NNE 1.6mph /  2.6km/h 6mph /  9.7km/h 82.6% 0.00in /  0mm 118 W/m2
12:44 44.1 °F /  6.7 °C 38.8 °F /  3.8 °C 30.26in /  1024.6hPa NNW 6.2mph /  10km/h 10mph /  16.1km/h 82% 0.00in /  0mm 95 W/m2
12:49 44.1 °F /  6.7 °C 38.8 °F /  3.8 °C 30.26in /  1024.6hPa NW 3.5mph /  5.6km/h 10mph /  16.1km/h 82% 0.00in /  0mm 121 W/m2
12:54 43.9 °F /  6.6 °C 38.7 °F /  3.7 °C 30.26in /  1024.6hPa NW 2.4mph /  3.9km/h 6mph /  9.7km/h 82% 0.00in /  0mm 77 W/m2
12:59 43.9 °F /  6.6 °C 38.7 °F /  3.7 °C 30.26in /  1024.6hPa NNW 4.8mph /  7.7km/h 7mph /  11.3km/h 82% 0.00in /  0mm 81 W/m2
13:04 43.6 °F /  6.4 °C 38.5 °F /  3.6 °C 30.26in /  1024.6hPa North 4.2mph /  6.8km/h 7mph /  11.3km/h 82% 0.00in /  0mm 123 W/m2
13:09 43.6 °F /  6.4 °C 38.5 °F /  3.6 °C 30.25in /  1024.3hPa North 1.2mph /  1.9km/h 7mph /  11.3km/h 82% 0.00in /  0mm 97 W/m2
13:14 43.7 °F /  6.5 °C 38.5 °F /  3.6 °C 30.25in /  1024.3hPa NNW 2.4mph /  3.9km/h 6mph /  9.7km/h 82% 0.00in /  0mm 97 W/m2
13:19 43.7 °F /  6.5 °C 38.5 °F /  3.6 °C 30.25in /  1024.3hPa NNE 2.8mph /  4.5km/h 7mph /  11.3km/h 82% 0.00in /  0mm 90 W/m2
13:24 43.8 °F /  6.6 °C 38.6 °F /  3.7 °C 30.26in /  1024.6hPa North 6.4mph /  10.3km/h 10mph /  16.1km/h 82% 0.00in /  0mm 76 W/m2
13:29 43.5 °F /  6.4 °C 38.5 °F /  3.6 °C 30.26in /  1024.6hPa North 5.4mph /  8.7km/h 11mph /  17.7km/h 82% 0.00in /  0mm 97 W/m2
13:34 43.4 °F /  6.3 °C 38.4 °F /  3.6 °C 30.26in /  1024.6hPa NNW 6.8mph /  10.9km/h 12mph /  19.3km/h 82% 0.00in /  0mm 125 W/m2
13:39 43.3 °F /  6.3 °C 38.3 °F /  3.5 °C 30.26in /  1024.6hPa North 5.4mph /  8.7km/h 11mph /  17.7km/h 82% 0.00in /  0mm 109 W/m2
13:44 43.2 °F /  6.2 °C 38.1 °F /  3.4 °C 30.26in /  1024.6hPa NNW 6.2mph /  10km/h 11mph /  17.7km/h 82% 0.00in /  0mm 58 W/m2
13:49 43 °F /  6.1 °C 37.9 °F /  3.3 °C 30.26in /  1024.6hPa NNW 4.4mph /  7.1km/h 8mph /  12.9km/h 82% 0.00in /  0mm 93 W/m2
13:54 43 °F /  6.1 °C 37.9 °F /  3.3 °C 30.26in /  1024.6hPa NNW 6.2mph /  10km/h 9mph /  14.5km/h 82% 0.00in /  0mm 100 W/m2
13:59 43.2 °F /  6.2 °C 38.1 °F /  3.4 °C 30.26in /  1024.6hPa North 6.3mph /  10.1km/h 10mph /  16.1km/h 82% 0.00in /  0mm 69 W/m2
14:04 43.2 °F /  6.2 °C 38.2 °F /  3.4 °C 30.27in /  1024.9hPa NNW 5.2mph /  8.4km/h 10mph /  16.1km/h 82.4% 0.00in /  0mm 42 W/m2
14:09 43.2 °F /  6.2 °C 38.1 °F /  3.4 °C 30.27in /  1024.9hPa NNW 3mph /  4.8km/h 8mph /  12.9km/h 82% 0.00in /  0mm 40 W/m2
14:14 43.2 °F /  6.2 °C 38.1 °F /  3.4 °C 30.27in /  1024.9hPa North 3.9mph /  6.3km/h 11mph /  17.7km/h 82% 0.00in /  0mm 51 W/m2
14:19 43.2 °F /  6.2 °C 38.1 °F /  3.4 °C 30.27in /  1024.9hPa North 4.9mph /  7.9km/h 10mph /  16.1km/h 82% 0.00in /  0mm 47 W/m2
14:24 43.1 °F /  6.2 °C 38.1 °F /  3.4 °C 30.27in /  1024.9hPa WNW 1.7mph /  2.7km/h 6mph /  9.7km/h 82.2% 0.00in /  0mm 40 W/m2
14:29 43 °F /  6.1 °C 38 °F /  3.3 °C 30.27in /  1024.9hPa NW 2mph /  3.2km/h 7mph /  11.3km/h 82.6% 0.00in /  0mm 33 W/m2
14:34 43 °F /  6.1 °C 38.1 °F /  3.4 °C 30.27in /  1024.9hPa North 6.2mph /  10km/h 9mph /  14.5km/h 83% 0.00in /  0mm 37 W/m2
14:39 42.9 °F /  6.1 °C 38 °F /  3.3 °C 30.28in /  1025.3hPa North 4.1mph /  6.6km/h 8mph /  12.9km/h 83% 0.00in /  0mm 42 W/m2
14:44 42.7 °F /  5.9 °C 37.8 °F /  3.2 °C 30.28in /  1025.3hPa NNW 4.6mph /  7.4km/h 10mph /  16.1km/h 83% 0.00in /  0mm 42 W/m2
14:49 42.6 °F /  5.9 °C 37.8 °F /  3.2 °C 30.28in /  1025.3hPa NNW 7.8mph /  12.6km/h 13mph /  20.9km/h 83% 0.00in /  0mm 44 W/m2
14:54 42.4 °F /  5.8 °C 37.6 °F /  3.1 °C 30.28in /  1025.3hPa NNW 6.2mph /  10km/h 12mph /  19.3km/h 83% 0.00in /  0mm 44 W/m2
14:58 42.3 °F /  5.7 °C 37.5 °F /  3.1 °C 30.29in /  1025.6hPa North 4.7mph /  7.6km/h 12mph /  19.3km/h 83% 0.00in /  0mm 47 W/m2
15:04 42.3 °F /  5.7 °C 37.4 °F /  3 °C 30.29in /  1025.6hPa NNW 6mph /  9.7km/h 12mph /  19.3km/h 83% 0.00in /  0mm 46 W/m2
15:09 42.3 °F /  5.7 °C 37.4 °F /  3 °C 30.29in /  1025.6hPa NNW 4.4mph /  7.1km/h 8mph /  12.9km/h 83% 0.00in /  0mm 32 W/m2
15:14 42.3 °F /  5.7 °C 37.7 °F /  3.2 °C 30.29in /  1025.6hPa NNW 4.6mph /  7.4km/h 8mph /  12.9km/h 83.8% 0.00in /  0mm 28 W/m2
15:19 42.2 °F /  5.7 °C 37.7 °F /  3.2 °C 30.29in /  1025.6hPa NW 1.7mph /  2.7km/h 6mph /  9.7km/h 84% 0.00in /  0mm 26 W/m2
15:24 42.1 °F /  5.6 °C 37.6 °F /  3.1 °C 30.30in /  1026hPa NNW 0.7mph /  1.1km/h 8mph /  12.9km/h 84% 0.00in /  0mm 18 W/m2
15:29 41.9 °F /  5.5 °C 37.4 °F /  3 °C 30.30in /  1026hPa NNW 2.8mph /  4.5km/h 5mph /  8km/h 84% 0.00in /  0mm 14 W/m2
15:34 41.9 °F /  5.5 °C 37.4 °F /  3 °C 30.30in /  1026hPa North 4.2mph /  6.8km/h 8mph /  12.9km/h 84% 0.00in /  0mm 11 W/m2
15:39 41.9 °F /  5.5 °C 37.4 °F /  3 °C 30.30in /  1026hPa NW 3.5mph /  5.6km/h 9mph /  14.5km/h 84% 0.00in /  0mm 9 W/m2
15:44 41.8 °F /  5.4 °C 37.6 °F /  3.1 °C 30.30in /  1026hPa NW 2mph /  3.2km/h 6mph /  9.7km/h 84.8% 0.00in /  0mm 7 W/m2
15:49 41.7 °F /  5.4 °C 37.6 °F /  3.1 °C 30.30in /  1026hPa NW 3.9mph /  6.3km/h 7mph /  11.3km/h 85% 0.00in /  0mm 5 W/m2
15:54 41.7 °F /  5.4 °C 37.6 °F /  3.1 °C 30.30in /  1026hPa NW 3.6mph /  5.8km/h 11mph /  17.7km/h 85% 0.00in /  0mm 0 W/m2
15:59 41.7 °F /  5.4 °C 37.6 °F /  3.1 °C 30.31in /  1026.3hPa NNW 3.2mph /  5.1km/h 8mph /  12.9km/h 85% 0.00in /  0mm 0 W/m2
16:04 41.7 °F /  5.4 °C 37.6 °F /  3.1 °C 30.31in /  1026.3hPa NW 4mph /  6.4km/h 9mph /  14.5km/h 85% 0.00in /  0mm 0 W/m2
16:09 41.7 °F /  5.4 °C 37.6 °F /  3.1 °C 30.31in /  1026.3hPa NNW 2.5mph /  4km/h 8mph /  12.9km/h 85% 0.00in /  0mm 0 W/m2
16:14 41.7 °F /  5.4 °C 37.6 °F /  3.1 °C 30.32in /  1026.6hPa NW 2.7mph /  4.3km/h 7mph /  11.3km/h 85% 0.00in /  0mm 0 W/m2
16:19 41.7 °F /  5.4 °C 37.6 °F /  3.1 °C 30.32in /  1026.6hPa NW 4.1mph /  6.6km/h 7mph /  11.3km/h 85% 0.00in /  0mm 0 W/m2
16:24 41.8 °F /  5.4 °C 37.7 °F /  3.2 °C 30.32in /  1026.6hPa NNW 5mph /  8km/h 9mph /  14.5km/h 85% 0.00in /  0mm 0 W/m2
16:29 41.9 °F /  5.5 °C 37.8 °F /  3.2 °C 30.32in /  1026.6hPa NW 2.8mph /  4.5km/h 6mph /  9.7km/h 85% 0.00in /  0mm 0 W/m2
16:34 41.9 °F /  5.5 °C 37.8 °F /  3.2 °C 30.32in /  1026.6hPa NW 0.8mph /  1.3km/h 6mph /  9.7km/h 85% 0.00in /  0mm 0 W/m2
16:39 41.9 °F /  5.5 °C 37.8 °F /  3.2 °C 30.32in /  1026.6hPa NNW 2.2mph /  3.5km/h 7mph /  11.3km/h 85% 0.00in /  0mm 0 W/m2
16:44 42.1 °F /  5.6 °C 37.9 °F /  3.3 °C 30.32in /  1026.6hPa NNW 2.8mph /  4.5km/h 7mph /  11.3km/h 85% 0.00in /  0mm 0 W/m2
16:49 42.1 °F /  5.6 °C 37.9 °F /  3.3 °C 30.33in /  1027hPa NNW 3.6mph /  5.8km/h 6mph /  9.7km/h 85% 0.00in /  0mm 0 W/m2
16:53 42.1 °F /  5.6 °C 37.9 °F /  3.3 °C 30.33in /  1027hPa NNE 2.7mph /  4.3km/h 7mph /  11.3km/h 85% 0.00in /  0mm 0 W/m2
16:59 42.1 °F /  5.6 °C 37.9 °F /  3.3 °C 30.33in /  1027hPa NNW 3.9mph /  6.3km/h 8mph /  12.9km/h 85% 0.00in /  0mm 0 W/m2
17:04 42.1 °F /  5.6 °C 37.9 °F /  3.3 °C 30.33in /  1027hPa NNE 4mph /  6.4km/h 10mph /  16.1km/h 85% 0.00in /  0mm 0 W/m2
17:09 42.1 °F /  5.6 °C 37.9 °F /  3.3 °C 30.34in /  1027.3hPa NNW 1.2mph /  1.9km/h 6mph /  9.7km/h 85% 0.00in /  0mm 0 W/m2
17:14 42.2 °F /  5.7 °C 38 °F /  3.3 °C 30.34in /  1027.3hPa NW 1.8mph /  2.9km/h 7mph /  11.3km/h 85% 0.00in /  0mm 0 W/m2
17:19 42.2 °F /  5.7 °C 38 °F /  3.3 °C 30.34in /  1027.3hPa NNW 1mph /  1.6km/h 4mph /  6.4km/h 85% 0.00in /  0mm 0 W/m2
17:24 42.1 °F /  5.6 °C 37.9 °F /  3.3 °C 30.34in /  1027.3hPa NW 4.4mph /  7.1km/h 8mph /  12.9km/h 85% 0.00in /  0mm 0 W/m2
17:29 42.1 °F /  5.6 °C 37.9 °F /  3.3 °C 30.34in /  1027.3hPa NNW 4.9mph /  7.9km/h 11mph /  17.7km/h 85% 0.00in /  0mm 0 W/m2
17:34 42.1 °F /  5.6 °C 37.9 °F /  3.3 °C 30.34in /  1027.3hPa NW 2.2mph /  3.5km/h 11mph /  17.7km/h 85% 0.00in /  0mm 0 W/m2
17:39 42.1 °F /  5.6 °C 37.9 °F /  3.3 °C 30.34in /  1027.3hPa NW 2.9mph /  4.7km/h 6mph /  9.7km/h 85% 0.00in /  0mm 0 W/m2
17:44 42.1 °F /  5.6 °C 37.9 °F /  3.3 °C 30.34in /  1027.3hPa NW 1.8mph /  2.9km/h 7mph /  11.3km/h 85% 0.00in /  0mm 0 W/m2
17:49 42.1 °F /  5.6 °C 37.9 °F /  3.3 °C 30.34in /  1027.3hPa NW 1.4mph /  2.3km/h 5mph /  8km/h 85% 0.00in /  0mm 0 W/m2
17:54 42.1 °F /  5.6 °C 37.9 °F /  3.3 °C 30.34in /  1027.3hPa NW 2.9mph /  4.7km/h 6mph /  9.7km/h 85% 0.00in /  0mm 0 W/m2
17:59 41.9 °F /  5.5 °C 37.8 °F /  3.2 °C 30.34in /  1027.3hPa NNW 2.1mph /  3.4km/h 9mph /  14.5km/h 85% 0.00in /  0mm 0 W/m2
18:04 42 °F /  5.6 °C 37.8 °F /  3.2 °C 30.35in /  1027.7hPa NW 1.7mph /  2.7km/h 9mph /  14.5km/h 85% 0.00in /  0mm 0 W/m2
18:08 41.9 °F /  5.5 °C 37.8 °F /  3.2 °C 30.35in /  1027.7hPa WNW 1mph /  1.6km/h 6mph /  9.7km/h 85% 0.00in /  0mm 0 W/m2
18:14 41.8 °F /  5.4 °C 37.7 °F /  3.2 °C 30.35in /  1027.7hPa NW 2.9mph /  4.7km/h 7mph /  11.3km/h 85% 0.00in /  0mm 0 W/m2
18:19 41.7 °F /  5.4 °C 37.6 °F /  3.1 °C 30.35in /  1027.7hPa NW 2.5mph /  4km/h 7mph /  11.3km/h 85% 0.00in /  0mm 0 W/m2
18:24 41.6 °F /  5.3 °C 37.5 °F /  3.1 °C 30.35in /  1027.7hPa NW 2.5mph /  4km/h 7mph /  11.3km/h 85% 0.00in /  0mm 0 W/m2
18:29 41.5 °F /  5.3 °C 37.4 °F /  3 °C 30.35in /  1027.7hPa WNW 2.4mph /  3.9km/h 6mph /  9.7km/h 85% 0.00in /  0mm 0 W/m2
18:34 41.4 °F /  5.2 °C 37.3 °F /  2.9 °C 30.35in /  1027.7hPa NW 4mph /  6.4km/h 8mph /  12.9km/h 85% 0.00in /  0mm 0 W/m2
18:39 41.4 °F /  5.2 °C 37.2 °F /  2.9 °C 30.35in /  1027.7hPa NNW 1.6mph /  2.6km/h 6mph /  9.7km/h 85% 0.00in /  0mm 0 W/m2
18:44 41.1 °F /  5.1 °C 37 °F /  2.8 °C 30.35in /  1027.7hPa NNW 1.7mph /  2.7km/h 5mph /  8km/h 85% 0.00in /  0mm 0 W/m2
18:49 40.9 °F /  4.9 °C 36.8 °F /  2.7 °C 30.36in /  1028hPa NNW 2.9mph /  4.7km/h 6mph /  9.7km/h 85% 0.00in /  0mm 0 W/m2
18:54 40.6 °F /  4.8 °C 36.5 °F /  2.5 °C 30.36in /  1028hPa NW 2mph /  3.2km/h 6mph /  9.7km/h 85% 0.00in /  0mm 0 W/m2
18:59 40.4 °F /  4.7 °C 36.2 °F /  2.3 °C 30.37in /  1028.3hPa NW 2.6mph /  4.2km/h 5mph /  8km/h 85% 0.00in /  0mm 0 W/m2
19:04 40.2 °F /  4.6 °C 36.3 °F /  2.4 °C 30.37in /  1028.3hPa NNW 2.7mph /  4.3km/h 6mph /  9.7km/h 85.8% 0.00in /  0mm 0 W/m2
19:09 39.9 °F /  4.4 °C 36.1 °F /  2.3 °C 30.37in /  1028.3hPa NNW 3.2mph /  5.1km/h 6mph /  9.7km/h 86% 0.00in /  0mm 0 W/m2
19:14 39.6 °F /  4.2 °C 35.9 °F /  2.2 °C 30.37in /  1028.3hPa NNW 4.4mph /  7.1km/h 8mph /  12.9km/h 86% 0.00in /  0mm 0 W/m2
19:19 39.5 °F /  4.2 °C 35.7 °F /  2.1 °C 30.37in /  1028.3hPa NW 3.3mph /  5.3km/h 10mph /  16.1km/h 86% 0.00in /  0mm 0 W/m2
19:24 39.3 °F /  4.1 °C 35.5 °F /  1.9 °C 30.37in /  1028.3hPa NNW 4mph /  6.4km/h 10mph /  16.1km/h 86% 0.00in /  0mm 0 W/m2
19:29 39.2 °F /  4 °C 35.4 °F /  1.9 °C 30.37in /  1028.3hPa NNW 3mph /  4.8km/h 11mph /  17.7km/h 86% 0.00in /  0mm 0 W/m2
19:34 39 °F /  3.9 °C 35.2 °F /  1.8 °C 30.38in /  1028.7hPa NNW 3.2mph /  5.1km/h 8mph /  12.9km/h 86% 0.00in /  0mm 0 W/m2
19:39 38.8 °F /  3.8 °C 35.1 °F /  1.7 °C 30.38in /  1028.7hPa NW 2.4mph /  3.9km/h 5mph /  8km/h 86% 0.00in /  0mm 0 W/m2
19:44 38.7 °F /  3.7 °C 34.9 °F /  1.6 °C 30.38in /  1028.7hPa NW 2.7mph /  4.3km/h 5mph /  8km/h 86% 0.00in /  0mm 0 W/m2
19:49 38.7 °F /  3.7 °C 35 °F /  1.7 °C 30.39in /  1029hPa NNW 4.3mph /  6.9km/h 6mph /  9.7km/h 86.6% 0.00in /  0mm 0 W/m2
19:54 38.6 °F /  3.7 °C 35 °F /  1.7 °C 30.38in /  1028.7hPa North 2.4mph /  3.9km/h 6mph /  9.7km/h 87% 0.00in /  0mm 0 W/m2
19:59 38.5 °F /  3.6 °C 34.9 °F /  1.6 °C 30.38in /  1028.7hPa NNW 2mph /  3.2km/h 6mph /  9.7km/h 87% 0.00in /  0mm 0 W/m2
20:04 38.4 °F /  3.6 °C 34.8 °F /  1.6 °C 30.39in /  1029hPa NNW 1.4mph /  2.3km/h 4mph /  6.4km/h 87% 0.00in /  0mm 0 W/m2
20:09 38.1 °F /  3.4 °C 34.5 °F /  1.4 °C 30.39in /  1029hPa NNW 1.6mph /  2.6km/h 4mph /  6.4km/h 87% 0.00in /  0mm 0 W/m2
20:14 38 °F /  3.3 °C 34.4 °F /  1.3 °C 30.39in /  1029hPa North 3.2mph /  5.1km/h 6mph /  9.7km/h 87% 0.00in /  0mm 0 W/m2
20:19 37.9 °F /  3.3 °C 34.3 °F /  1.3 °C 30.39in /  1029hPa NNW 2.8mph /  4.5km/h 7mph /  11.3km/h 87% 0.00in /  0mm 0 W/m2
20:24 37.8 °F /  3.2 °C 34.2 °F /  1.2 °C 30.39in /  1029hPa NNW 2.1mph /  3.4km/h 7mph /  11.3km/h 87% 0.00in /  0mm 0 W/m2
20:29 37.7 °F /  3.2 °C 34.1 °F /  1.2 °C 30.40in /  1029.3hPa NNW 3mph /  4.8km/h 8mph /  12.9km/h 87% 0.00in /  0mm 0 W/m2
20:34 37.6 °F /  3.1 °C 34 °F /  1.1 °C 30.40in /  1029.3hPa NNW 3.1mph /  5km/h 7mph /  11.3km/h 87% 0.00in /  0mm 0 W/m2
20:39 37.6 °F /  3.1 °C 34 °F /  1.1 °C 30.40in /  1029.3hPa NNW 2.2mph /  3.5km/h 6mph /  9.7km/h 87% 0.00in /  0mm 0 W/m2
20:44 37.6 °F /  3.1 °C 34 °F /  1.1 °C 30.40in /  1029.3hPa North 4.1mph /  6.6km/h 9mph /  14.5km/h 87% 0.00in /  0mm 0 W/m2
20:49 37.4 °F /  3 °C 33.8 °F /  1 °C 30.40in /  1029.3hPa NW 2.8mph /  4.5km/h 5mph /  8km/h 87% 0.00in /  0mm 0 W/m2
20:54 37.2 °F /  2.9 °C 33.8 °F /  1 °C 30.40in /  1029.3hPa NNW 2.4mph /  3.9km/h 6mph /  9.7km/h 87% 0.00in /  0mm 0 W/m2
20:59 37.2 °F /  2.9 °C 33.8 °F /  1 °C 30.40in /  1029.3hPa North 1.4mph /  2.3km/h 7mph /  11.3km/h 87% 0.00in /  0mm 0 W/m2
21:04 37.1 °F /  2.8 °C 33.7 °F /  0.9 °C 30.40in /  1029.3hPa NNW 3mph /  4.8km/h 5mph /  8km/h 87% 0.00in /  0mm 0 W/m2
21:08 37.1 °F /  2.8 °C 33.7 °F /  0.9 °C 30.40in /  1029.3hPa NNW 1.7mph /  2.7km/h 5mph /  8km/h 87% 0.00in /  0mm 0 W/m2
21:14 37 °F /  2.8 °C 33.3 °F /  0.7 °C 30.40in /  1029.3hPa Calm   2mph /  3.2km/h 86% 0.00in /  0mm 0 W/m2
21:19 37 °F /  2.8 °C 33.2 °F /  0.7 °C 30.41in /  1029.7hPa NNW 0.4mph /  0.6km/h 3mph /  4.8km/h 86% 0.00in /  0mm 0 W/m2
21:24 36.9 °F /  2.7 °C 33.1 °F /  0.6 °C 30.41in /  1029.7hPa NNW 0.2mph /  0.3km/h 2mph /  3.2km/h 86% 0.00in /  0mm 0 W/m2
21:28 36.9 °F /  2.7 °C 33.1 °F /  0.6 °C 30.41in /  1029.7hPa NNW 2.5mph /  4km/h 5mph /  8km/h 86% 0.00in /  0mm 0 W/m2
21:34 36.8 °F /  2.7 °C 33 °F /  0.6 °C 30.41in /  1029.7hPa North 0.8mph /  1.3km/h 3mph /  4.8km/h 86% 0.00in /  0mm 0 W/m2
21:39 36.7 °F /  2.6 °C 32.9 °F /  0.5 °C 30.41in /  1029.7hPa Calm   1mph /  1.6km/h 86% 0.00in /  0mm 0 W/m2
21:44 36.5 °F /  2.5 °C 32.7 °F /  0.4 °C 30.41in /  1029.7hPa North 1.7mph /  2.7km/h 3mph /  4.8km/h 86% 0.00in /  0mm 0 W/m2
21:49 36.5 °F /  2.5 °C 32.7 °F /  0.4 °C 30.41in /  1029.7hPa NNW 0.6mph /  1km/h 4mph /  6.4km/h 86% 0.00in /  0mm 0 W/m2
21:54 36.5 °F /  2.5 °C 32.7 °F /  0.4 °C 30.41in /  1029.7hPa NNW 0.7mph /  1.1km/h 3mph /  4.8km/h 86% 0.00in /  0mm 0 W/m2
21:59 36.4 °F /  2.4 °C 32.6 °F /  0.3 °C 30.41in /  1029.7hPa NNW 0.4mph /  0.6km/h 2mph /  3.2km/h 86% 0.00in /  0mm 0 W/m2
22:04 36.3 °F /  2.4 °C 32.5 °F /  0.3 °C 30.41in /  1029.7hPa NNW 0.2mph /  0.3km/h 1mph /  1.6km/h 86% 0.00in /  0mm 0 W/m2
22:09 36.2 °F /  2.3 °C 32.4 °F /  0.2 °C 30.41in /  1029.7hPa NNW 0.4mph /  0.6km/h 2mph /  3.2km/h 86% 0.00in /  0mm 0 W/m2
22:14 36.1 °F /  2.3 °C 32.4 °F /  0.2 °C 30.41in /  1029.7hPa NNW 0.2mph /  0.3km/h 1mph /  1.6km/h 86% 0.00in /  0mm 0 W/m2
22:17 36 °F /  2.2 °C 32.3 °F /  0.2 °C 30.41in /  1029.7hPa NNW 0.7mph /  1.1km/h 2mph /  3.2km/h 86% 0.00in /  0mm 0 W/m2
22:24 35.8 °F /  2.1 °C 32 °F /  0 °C 30.41in /  1029.7hPa NNW 0.2mph /  0.3km/h 1mph /  1.6km/h 86% 0.00in /  0mm 0 W/m2
22:29 35.6 °F /  2 °C 31.8 °F /  -0.1 °C 30.41in /  1029.7hPa Calm   1mph /  1.6km/h 86% 0.00in /  0mm 0 W/m2
22:34 35.2 °F /  1.8 °C 31.4 °F /  -0.3 °C 30.41in /  1029.7hPa Calm   1mph /  1.6km/h 86% 0.00in /  0mm 0 W/m2
22:39 34.9 °F /  1.6 °C 31.1 °F /  -0.5 °C 30.41in /  1029.7hPa Calm   1mph /  1.6km/h 86% 0.00in /  0mm 0 W/m2
22:44 34.6 °F /  1.4 °C 31.2 °F /  -0.4 °C 30.41in /  1029.7hPa NNW 0.4mph /  0.6km/h 2mph /  3.2km/h 87% 0.00in /  0mm 0 W/m2
22:49 34.5 °F /  1.4 °C 31.1 °F /  -0.5 °C 30.42in /  1030hPa NNW 1mph /  1.6km/h 2mph /  3.2km/h 87% 0.00in /  0mm 0 W/m2
22:54 34.3 °F /  1.3 °C 30.9 °F /  -0.6 °C 30.42in /  1030hPa NNW 1.7mph /  2.7km/h 3mph /  4.8km/h 87% 0.00in /  0mm 0 W/m2
22:59 34.3 °F /  1.3 °C 31 °F /  -0.6 °C 30.42in /  1030hPa NNW 0.2mph /  0.3km/h 3mph /  4.8km/h 87.2% 0.00in /  0mm 0 W/m2
23:04 34.4 °F /  1.3 °C 31.2 °F /  -0.4 °C 30.42in /  1030hPa NNW 0.2mph /  0.3km/h 3mph /  4.8km/h 88% 0.00in /  0mm 0 W/m2
23:09 34.3 °F /  1.3 °C 31.1 °F /  -0.5 °C 30.42in /  1030hPa Calm   1mph /  1.6km/h 88% 0.00in /  0mm 0 W/m2
23:14 34.2 °F /  1.2 °C 30.9 °F /  -0.6 °C 30.42in /  1030hPa Calm     88% 0.00in /  0mm 0 W/m2
23:19 34.1 °F /  1.2 °C 30.8 °F /  -0.7 °C 30.42in /  1030hPa Calm   1mph /  1.6km/h 88% 0.00in /  0mm 0 W/m2
23:24 33.8 °F /  1 °C 30.5 °F /  -0.8 °C 30.42in /  1030hPa Calm   1mph /  1.6km/h 88% 0.00in /  0mm 0 W/m2
23:29 33.5 °F /  0.8 °C 30.3 °F /  -0.9 °C 30.42in /  1030hPa NNW 0.4mph /  0.6km/h 2mph /  3.2km/h 88% 0.00in /  0mm 0 W/m2
23:34 33.4 °F /  0.8 °C 30.1 °F /  -1.1 °C 30.43in /  1030.4hPa Calm   2mph /  3.2km/h 88% 0.00in /  0mm 0 W/m2
23:39 33.3 °F /  0.7 °C 30 °F /  -1.1 °C 30.43in /  1030.4hPa NNW 0.7mph /  1.1km/h 2mph /  3.2km/h 88% 0.00in /  0mm 0 W/m2
23:44 33.3 °F /  0.7 °C 30.2 °F /  -1 °C 30.43in /  1030.4hPa NNW 0.6mph /  1km/h 3mph /  4.8km/h 88.2% 0.00in /  0mm 0 W/m2
23:49 33.4 °F /  0.8 °C 30.6 °F /  -0.8 °C 30.43in /  1030.4hPa NNW 0.8mph /  1.3km/h 2mph /  3.2km/h 89% 0.00in /  0mm 0 W/m2
23:54 33.3 °F /  0.7 °C 30.4 °F /  -0.9 °C 30.43in /  1030.4hPa NNW 0.2mph /  0.3km/h 1mph /  1.6km/h 89% 0.00in /  0mm 0 W/m2
23:59 33.2 °F /  0.7 °C 30.3 °F /  -0.9 °C 30.43in /  1030.4hPa NNW 0.4mph /  0.6km/h 2mph /  3.2km/h 89% 0.00in /  0mm 0 W/m2
Bath Spa Weather
Compliments of Weather Underground - 2 mb